Long Branch, New Jersey
Current Conditions -  °F | °C
As of 12:55 AM on Saturday 20 Dec 2014 (Local Time) from KBLM Reporting Station
Overcast Overcast  
Wind Chill: 24°   Ceiling: 2800
Heat Index: 30°   Visibility: 10mi
Dew Point: 18°   Wind: 6mph
Humidity: 60%   Direction: 330°NNW
Pressure: 30.18"   Gusts: NA
Location:  40.3°N, 73.99°W
Report Text: KBLM 200555Z AUTO 33005KT 10SM OVC028 M01/M08 A3018 RMK AO1 10010 21010 52007
Loading
Personal Weather Stations






























Interactive Weather Map New forecast layout! Learn more

10-Day Weather Forecast

Advertisements
Track Severe Weather on mobile